sensor_id;sensor_type;location;lat;lon;timestamp;temperature;humidity
8002;DHT22;4046;48.774;8.732;2022-12-07T00:01:29;22.90;96.00
8002;DHT22;4046;48.774;8.732;2022-12-07T00:03:58;22.90;96.00
8002;DHT22;4046;48.774;8.732;2022-12-07T00:06:35;22.90;96.00
8002;DHT22;4046;48.774;8.732;2022-12-07T00:09:03;22.90;96.00
8002;DHT22;4046;48.774;8.732;2022-12-07T00:11:30;22.90;96.00
8002;DHT22;4046;48.774;8.732;2022-12-07T00:13:58;22.90;96.00
8002;DHT22;4046;48.774;8.732;2022-12-07T00:16:28;22.90;95.90
8002;DHT22;4046;48.774;8.732;2022-12-07T00:18:54;22.90;96.00
8002;DHT22;4046;48.774;8.732;2022-12-07T00:21:23;22.90;96.00
8002;DHT22;4046;48.774;8.732;2022-12-07T00:23:51;22.90;95.90
8002;DHT22;4046;48.774;8.732;2022-12-07T00:26:23;22.90;95.90
8002;DHT22;4046;48.774;8.732;2022-12-07T00:28:58;22.90;95.90
8002;DHT22;4046;48.774;8.732;2022-12-07T00:31:27;22.90;96.00
8002;DHT22;4046;48.774;8.732;2022-12-07T00:33:54;22.90;96.00
8002;DHT22;4046;48.774;8.732;2022-12-07T00:36:22;22.90;96.00
8002;DHT22;4046;48.774;8.732;2022-12-07T00:38:49;22.90;95.90
8002;DHT22;4046;48.774;8.732;2022-12-07T00:41:17;22.90;96.00
8002;DHT22;4046;48.774;8.732;2022-12-07T00:43:45;22.90;96.00
8002;DHT22;4046;48.774;8.732;2022-12-07T00:46:12;22.90;95.90
8002;DHT22;4046;48.774;8.732;2022-12-07T00:48:39;22.90;95.90
8002;DHT22;4046;48.774;8.732;2022-12-07T00:51:06;22.90;96.00
8002;DHT22;4046;48.774;8.732;2022-12-07T00:53:36;22.90;96.00
8002;DHT22;4046;48.774;8.732;2022-12-07T00:56:16;22.90;96.00
8002;DHT22;4046;48.774;8.732;2022-12-07T00:58:43;22.90;96.00
8002;DHT22;4046;48.774;8.732;2022-12-07T01:01:10;22.90;95.90
8002;DHT22;4046;48.774;8.732;2022-12-07T01:03:37;22.90;95.90
8002;DHT22;4046;48.774;8.732;2022-12-07T01:06:04;22.90;96.00
8002;DHT22;4046;48.774;8.732;2022-12-07T01:08:30;22.90;96.00
8002;DHT22;4046;48.774;8.732;2022-12-07T01:11:02;22.90;96.00
8002;DHT22;4046;48.774;8.732;2022-12-07T01:13:28;22.90;96.00
8002;DHT22;4046;48.774;8.732;2022-12-07T01:15:59;22.90;96.00
8002;DHT22;4046;48.774;8.732;2022-12-07T01:18:27;22.90;96.00
8002;DHT22;4046;48.774;8.732;2022-12-07T01:21:02;22.90;96.00
8002;DHT22;4046;48.774;8.732;2022-12-07T01:23:29;22.90;96.00
8002;DHT22;4046;48.774;8.732;2022-12-07T01:26:01;22.90;96.00
8002;DHT22;4046;48.774;8.732;2022-12-07T01:28:28;22.90;96.00
8002;DHT22;4046;48.774;8.732;2022-12-07T01:31:03;22.90;96.00
8002;DHT22;4046;48.774;8.732;2022-12-07T01:33:33;22.90;96.00
8002;DHT22;4046;48.774;8.732;2022-12-07T01:36:04;22.90;96.00
8002;DHT22;4046;48.774;8.732;2022-12-07T01:38:31;22.90;95.90
8002;DHT22;4046;48.774;8.732;2022-12-07T01:40:58;22.90;96.00
8002;DHT22;4046;48.774;8.732;2022-12-07T01:43:27;22.90;96.00
8002;DHT22;4046;48.774;8.732;2022-12-07T01:45:54;22.80;95.90
8002;DHT22;4046;48.774;8.732;2022-12-07T01:48:28;22.80;96.00
8002;DHT22;4046;48.774;8.732;2022-12-07T01:50:56;22.70;95.90
8002;DHT22;4046;48.774;8.732;2022-12-07T01:53:26;22.70;96.00
8002;DHT22;4046;48.774;8.732;2022-12-07T01:55:55;22.70;96.00
8002;DHT22;4046;48.774;8.732;2022-12-07T01:58:22;22.70;96.00
8002;DHT22;4046;48.774;8.732;2022-12-07T02:00:49;22.70;96.00
8002;DHT22;4046;48.774;8.732;2022-12-07T02:03:24;22.70;96.00
8002;DHT22;4046;48.774;8.732;2022-12-07T02:05:53;22.70;96.00
8002;DHT22;4046;48.774;8.732;2022-12-07T02:08:20;22.70;96.00
8002;DHT22;4046;48.774;8.732;2022-12-07T02:10:46;22.70;96.00
8002;DHT22;4046;48.774;8.732;2022-12-07T02:13:16;22.70;96.00
8002;DHT22;4046;48.774;8.732;2022-12-07T02:21:38;22.70;96.00
8002;DHT22;4046;48.774;8.732;2022-12-07T02:24:24;22.60;96.00
8002;DHT22;4046;48.774;8.732;2022-12-07T02:29:38;22.60;96.00
8002;DHT22;4046;48.774;8.732;2022-12-07T02:37:25;22.70;96.10
8002;DHT22;4046;48.774;8.732;2022-12-07T02:40:01;22.70;96.10
8002;DHT22;4046;48.774;8.732;2022-12-07T02:42:44;22.70;96.40
8002;DHT22;4046;48.774;8.732;2022-12-07T02:45:14;22.70;96.00
8002;DHT22;4046;48.774;8.732;2022-12-07T02:47:43;22.70;96.00
8002;DHT22;4046;48.774;8.732;2022-12-07T02:50:10;22.70;96.00
8002;DHT22;4046;48.774;8.732;2022-12-07T02:52:36;22.70;96.00
8002;DHT22;4046;48.774;8.732;2022-12-07T02:55:04;22.70;96.00
8002;DHT22;4046;48.774;8.732;2022-12-07T03:00:52;22.70;96.00
8002;DHT22;4046;48.774;8.732;2022-12-07T03:03:20;22.70;96.00
8002;DHT22;4046;48.774;8.732;2022-12-07T03:06:03;22.80;96.00
8002;DHT22;4046;48.774;8.732;2022-12-07T03:08:57;22.80;96.00
8002;DHT22;4046;48.774;8.732;2022-12-07T03:11:34;22.70;96.00
8002;DHT22;4046;48.774;8.732;2022-12-07T03:14:22;22.70;96.00
8002;DHT22;4046;48.774;8.732;2022-12-07T03:16:59;22.70;96.40
8002;DHT22;4046;48.774;8.732;2022-12-07T03:19:27;22.80;96.00
8002;DHT22;4046;48.774;8.732;2022-12-07T03:21:57;22.80;96.00
8002;DHT22;4046;48.774;8.732;2022-12-07T03:24:31;22.80;96.00
8002;DHT22;4046;48.774;8.732;2022-12-07T03:27:04;22.80;96.00
8002;DHT22;4046;48.774;8.732;2022-12-07T03:29:36;22.80;96.00
8002;DHT22;4046;48.774;8.732;2022-12-07T03:32:09;22.80;96.00
8002;DHT22;4046;48.774;8.732;2022-12-07T03:34:43;22.80;96.00
8002;DHT22;4046;48.774;8.732;2022-12-07T03:37:20;22.80;96.00
8002;DHT22;4046;48.774;8.732;2022-12-07T03:42:37;22.80;96.00
8002;DHT22;4046;48.774;8.732;2022-12-07T03:45:04;22.80;96.00
8002;DHT22;4046;48.774;8.732;2022-12-07T03:47:46;22.80;96.00
8002;DHT22;4046;48.774;8.732;2022-12-07T03:50:28;22.80;96.00
8002;DHT22;4046;48.774;8.732;2022-12-07T03:53:04;22.80;96.00
8002;DHT22;4046;48.774;8.732;2022-12-07T03:55:41;22.80;96.00
8002;DHT22;4046;48.774;8.732;2022-12-07T03:58:15;22.80;96.00
8002;DHT22;4046;48.774;8.732;2022-12-07T04:00:43;22.80;96.00
8002;DHT22;4046;48.774;8.732;2022-12-07T04:03:10;22.80;96.00
8002;DHT22;4046;48.774;8.732;2022-12-07T04:05:37;22.80;96.00
8002;DHT22;4046;48.774;8.732;2022-12-07T04:08:03;22.90;96.00
8002;DHT22;4046;48.774;8.732;2022-12-07T04:10:30;22.90;96.00
8002;DHT22;4046;48.774;8.732;2022-12-07T04:12:57;22.90;96.00
8002;DHT22;4046;48.774;8.732;2022-12-07T04:15:23;22.90;96.00
8002;DHT22;4046;48.774;8.732;2022-12-07T04:17:49;22.90;96.00
8002;DHT22;4046;48.774;8.732;2022-12-07T04:20:16;22.90;96.00
8002;DHT22;4046;48.774;8.732;2022-12-07T04:22:42;22.90;96.00
8002;DHT22;4046;48.774;8.732;2022-12-07T04:25:09;22.90;96.00
8002;DHT22;4046;48.774;8.732;2022-12-07T04:27:35;22.90;96.00
8002;DHT22;4046;48.774;8.732;2022-12-07T04:30:02;22.90;96.00
8002;DHT22;4046;48.774;8.732;2022-12-07T04:32:28;22.90;96.00
8002;DHT22;4046;48.774;8.732;2022-12-07T04:34:54;22.90;96.00
8002;DHT22;4046;48.774;8.732;2022-12-07T04:37:20;22.90;96.00
8002;DHT22;4046;48.774;8.732;2022-12-07T04:39:47;22.90;96.00
8002;DHT22;4046;48.774;8.732;2022-12-07T04:42:13;22.90;96.00
8002;DHT22;4046;48.774;8.732;2022-12-07T04:44:39;22.90;96.00
8002;DHT22;4046;48.774;8.732;2022-12-07T04:47:05;22.90;96.00
8002;DHT22;4046;48.774;8.732;2022-12-07T04:49:31;22.90;96.00
8002;DHT22;4046;48.774;8.732;2022-12-07T04:51:58;22.90;96.00
8002;DHT22;4046;48.774;8.732;2022-12-07T04:54:24;22.90;96.00
8002;DHT22;4046;48.774;8.732;2022-12-07T04:56:50;22.90;96.00
8002;DHT22;4046;48.774;8.732;2022-12-07T04:59:17;22.90;96.00
8002;DHT22;4046;48.774;8.732;2022-12-07T05:01:43;22.90;96.00
8002;DHT22;4046;48.774;8.732;2022-12-07T05:04:10;22.90;96.00
8002;DHT22;4046;48.774;8.732;2022-12-07T05:06:36;22.90;96.00
8002;DHT22;4046;48.774;8.732;2022-12-07T05:09:03;22.90;96.00
8002;DHT22;4046;48.774;8.732;2022-12-07T05:11:29;22.90;96.00
8002;DHT22;4046;48.774;8.732;2022-12-07T05:16:36;22.90;96.00
8002;DHT22;4046;48.774;8.732;2022-12-07T05:19:03;22.90;96.00
8002;DHT22;4046;48.774;8.732;2022-12-07T05:21:30;22.90;96.00
8002;DHT22;4046;48.774;8.732;2022-12-07T05:23:56;22.90;96.00
8002;DHT22;4046;48.774;8.732;2022-12-07T05:26:22;22.90;96.00
8002;DHT22;4046;48.774;8.732;2022-12-07T05:28:53;22.90;96.00
8002;DHT22;4046;48.774;8.732;2022-12-07T05:31:20;22.90;96.00
8002;DHT22;4046;48.774;8.732;2022-12-07T05:33:46;22.90;95.90
8002;DHT22;4046;48.774;8.732;2022-12-07T05:36:13;22.90;95.90
8002;DHT22;4046;48.774;8.732;2022-12-07T05:38:39;22.90;95.90
8002;DHT22;4046;48.774;8.732;2022-12-07T05:41:06;22.90;95.90
8002;DHT22;4046;48.774;8.732;2022-12-07T05:43:33;22.90;95.90
8002;DHT22;4046;48.774;8.732;2022-12-07T05:45:59;22.90;96.00
8002;DHT22;4046;48.774;8.732;2022-12-07T05:48:25;22.90;95.90
8002;DHT22;4046;48.774;8.732;2022-12-07T05:50:52;22.90;95.90
8002;DHT22;4046;48.774;8.732;2022-12-07T05:53:19;22.90;96.00
8002;DHT22;4046;48.774;8.732;2022-12-07T05:55:45;22.90;96.00
8002;DHT22;4046;48.774;8.732;2022-12-07T05:58:11;22.90;95.90
8002;DHT22;4046;48.774;8.732;2022-12-07T06:00:56;22.90;95.90
8002;DHT22;4046;48.774;8.732;2022-12-07T06:03:23;22.90;95.90
8002;DHT22;4046;48.774;8.732;2022-12-07T06:05:49;22.90;95.90
8002;DHT22;4046;48.774;8.732;2022-12-07T06:08:15;22.90;95.90
8002;DHT22;4046;48.774;8.732;2022-12-07T06:10:41;22.90;95.90
8002;DHT22;4046;48.774;8.732;2022-12-07T06:13:08;22.90;95.90
8002;DHT22;4046;48.774;8.732;2022-12-07T06:15:38;22.90;95.90
8002;DHT22;4046;48.774;8.732;2022-12-07T06:18:04;22.90;95.90
8002;DHT22;4046;48.774;8.732;2022-12-07T06:20:30;22.90;95.90
8002;DHT22;4046;48.774;8.732;2022-12-07T06:22:56;22.90;95.90
8002;DHT22;4046;48.774;8.732;2022-12-07T06:25:23;22.90;95.90
8002;DHT22;4046;48.774;8.732;2022-12-07T06:27:49;22.90;95.90
8002;DHT22;4046;48.774;8.732;2022-12-07T06:30:15;22.90;95.90
8002;DHT22;4046;48.774;8.732;2022-12-07T06:32:41;22.90;95.90
8002;DHT22;4046;48.774;8.732;2022-12-07T06:35:08;22.90;95.90
8002;DHT22;4046;48.774;8.732;2022-12-07T06:37:34;22.90;95.90
8002;DHT22;4046;48.774;8.732;2022-12-07T06:40:00;22.90;95.90
8002;DHT22;4046;48.774;8.732;2022-12-07T06:42:26;22.90;95.90
8002;DHT22;4046;48.774;8.732;2022-12-07T06:44:52;22.90;95.90
8002;DHT22;4046;48.774;8.732;2022-12-07T06:47:18;22.90;95.90
8002;DHT22;4046;48.774;8.732;2022-12-07T06:49:45;22.90;95.90
8002;DHT22;4046;48.774;8.732;2022-12-07T06:52:11;22.90;95.90
8002;DHT22;4046;48.774;8.732;2022-12-07T06:54:37;22.90;95.80
8002;DHT22;4046;48.774;8.732;2022-12-07T06:57:03;22.90;95.90
8002;DHT22;4046;48.774;8.732;2022-12-07T06:59:29;22.90;95.90
8002;DHT22;4046;48.774;8.732;2022-12-07T07:01:55;22.90;95.90
8002;DHT22;4046;48.774;8.732;2022-12-07T07:04:22;22.90;95.90
8002;DHT22;4046;48.774;8.732;2022-12-07T07:06:48;22.90;95.90
8002;DHT22;4046;48.774;8.732;2022-12-07T07:09:14;22.90;95.90
8002;DHT22;4046;48.774;8.732;2022-12-07T07:11:40;22.90;95.80
8002;DHT22;4046;48.774;8.732;2022-12-07T07:14:06;22.90;95.90
8002;DHT22;4046;48.774;8.732;2022-12-07T07:16:32;22.90;95.80
8002;DHT22;4046;48.774;8.732;2022-12-07T07:18:59;22.90;95.90
8002;DHT22;4046;48.774;8.732;2022-12-07T07:21:25;22.90;95.80
8002;DHT22;4046;48.774;8.732;2022-12-07T07:23:51;22.90;95.80
8002;DHT22;4046;48.774;8.732;2022-12-07T07:26:17;22.90;95.80
8002;DHT22;4046;48.774;8.732;2022-12-07T07:28:44;22.90;95.80
8002;DHT22;4046;48.774;8.732;2022-12-07T07:31:10;22.90;95.80
8002;DHT22;4046;48.774;8.732;2022-12-07T07:33:36;22.90;95.80
8002;DHT22;4046;48.774;8.732;2022-12-07T07:36:02;22.90;95.80
8002;DHT22;4046;48.774;8.732;2022-12-07T07:38:29;22.90;95.80
8002;DHT22;4046;48.774;8.732;2022-12-07T07:40:55;22.90;95.80
8002;DHT22;4046;48.774;8.732;2022-12-07T07:43:22;22.90;95.80
8002;DHT22;4046;48.774;8.732;2022-12-07T07:45:48;22.90;95.80
8002;DHT22;4046;48.774;8.732;2022-12-07T07:48:14;22.90;95.80
8002;DHT22;4046;48.774;8.732;2022-12-07T07:50:40;22.90;95.80
8002;DHT22;4046;48.774;8.732;2022-12-07T07:53:06;22.80;95.80
8002;DHT22;4046;48.774;8.732;2022-12-07T07:55:33;22.80;95.80
8002;DHT22;4046;48.774;8.732;2022-12-07T07:57:59;22.80;95.80
8002;DHT22;4046;48.774;8.732;2022-12-07T08:00:25;22.70;95.70
8002;DHT22;4046;48.774;8.732;2022-12-07T08:02:51;22.70;95.70
8002;DHT22;4046;48.774;8.732;2022-12-07T08:05:17;22.70;95.70
8002;DHT22;4046;48.774;8.732;2022-12-07T08:07:44;22.70;95.70
8002;DHT22;4046;48.774;8.732;2022-12-07T08:10:12;22.60;95.70
8002;DHT22;4046;48.774;8.732;2022-12-07T08:12:40;22.60;95.70
8002;DHT22;4046;48.774;8.732;2022-12-07T08:15:27;22.60;95.70
8002;DHT22;4046;48.774;8.732;2022-12-07T08:17:54;22.60;95.70
8002;DHT22;4046;48.774;8.732;2022-12-07T08:20:20;22.60;95.70
8002;DHT22;4046;48.774;8.732;2022-12-07T08:22:46;22.60;95.70
8002;DHT22;4046;48.774;8.732;2022-12-07T08:25:13;22.50;95.70
8002;DHT22;4046;48.774;8.732;2022-12-07T08:27:39;22.50;95.70
8002;DHT22;4046;48.774;8.732;2022-12-07T08:30:05;22.50;95.70
8002;DHT22;4046;48.774;8.732;2022-12-07T08:32:32;22.50;95.70
8002;DHT22;4046;48.774;8.732;2022-12-07T08:34:58;22.50;95.70
8002;DHT22;4046;48.774;8.732;2022-12-07T08:37:24;22.50;95.70
8002;DHT22;4046;48.774;8.732;2022-12-07T08:39:50;22.50;95.70
8002;DHT22;4046;48.774;8.732;2022-12-07T08:42:16;22.50;95.70
8002;DHT22;4046;48.774;8.732;2022-12-07T08:44:43;22.50;95.70
8002;DHT22;4046;48.774;8.732;2022-12-07T08:47:10;22.50;95.70
8002;DHT22;4046;48.774;8.732;2022-12-07T08:49:39;22.40;95.60
8002;DHT22;4046;48.774;8.732;2022-12-07T08:52:06;22.40;95.60
8002;DHT22;4046;48.774;8.732;2022-12-07T08:54:34;22.40;95.60
8002;DHT22;4046;48.774;8.732;2022-12-07T08:57:01;22.40;95.70
8002;DHT22;4046;48.774;8.732;2022-12-07T08:59:28;22.40;95.70
8002;DHT22;4046;48.774;8.732;2022-12-07T09:01:54;22.40;95.70
8002;DHT22;4046;48.774;8.732;2022-12-07T09:04:21;22.40;95.60
8002;DHT22;4046;48.774;8.732;2022-12-07T09:06:47;22.40;95.60
8002;DHT22;4046;48.774;8.732;2022-12-07T09:09:14;22.40;95.60
8002;DHT22;4046;48.774;8.732;2022-12-07T09:11:40;22.40;95.60
8002;DHT22;4046;48.774;8.732;2022-12-07T09:14:06;22.40;95.60
8002;DHT22;4046;48.774;8.732;2022-12-07T09:16:33;22.40;95.60
8002;DHT22;4046;48.774;8.732;2022-12-07T09:18:59;22.50;96.00
8002;DHT22;4046;48.774;8.732;2022-12-07T09:21:25;22.40;95.60
8002;DHT22;4046;48.774;8.732;2022-12-07T09:23:51;22.40;95.60
8002;DHT22;4046;48.774;8.732;2022-12-07T09:26:17;22.40;95.60
8002;DHT22;4046;48.774;8.732;2022-12-07T09:28:44;22.40;95.60
8002;DHT22;4046;48.774;8.732;2022-12-07T09:31:10;22.40;95.60
8002;DHT22;4046;48.774;8.732;2022-12-07T09:33:36;22.40;95.60
8002;DHT22;4046;48.774;8.732;2022-12-07T09:36:03;22.40;95.60
8002;DHT22;4046;48.774;8.732;2022-12-07T09:38:30;22.40;95.60
8002;DHT22;4046;48.774;8.732;2022-12-07T09:40:57;22.40;95.60
8002;DHT22;4046;48.774;8.732;2022-12-07T09:43:24;22.40;95.60
8002;DHT22;4046;48.774;8.732;2022-12-07T09:45:53;22.40;95.60
8002;DHT22;4046;48.774;8.732;2022-12-07T09:48:36;22.40;95.60
8002;DHT22;4046;48.774;8.732;2022-12-07T09:51:09;22.40;95.60
8002;DHT22;4046;48.774;8.732;2022-12-07T09:53:38;22.40;95.60
8002;DHT22;4046;48.774;8.732;2022-12-07T09:56:04;22.40;95.60
8002;DHT22;4046;48.774;8.732;2022-12-07T09:58:32;22.40;95.50
8002;DHT22;4046;48.774;8.732;2022-12-07T10:03:31;22.40;95.50
8002;DHT22;4046;48.774;8.732;2022-12-07T10:05:58;22.40;95.50
8002;DHT22;4046;48.774;8.732;2022-12-07T10:08:25;22.40;95.50
8002;DHT22;4046;48.774;8.732;2022-12-07T10:10:53;22.40;95.50
8002;DHT22;4046;48.774;8.732;2022-12-07T10:13:39;22.40;95.50
8002;DHT22;4046;48.774;8.732;2022-12-07T10:16:36;22.40;95.50
8002;DHT22;4046;48.774;8.732;2022-12-07T10:22:15;22.40;95.50
8002;DHT22;4046;48.774;8.732;2022-12-07T10:24:44;22.40;95.50
8002;DHT22;4046;48.774;8.732;2022-12-07T10:27:26;22.40;95.50
8002;DHT22;4046;48.774;8.732;2022-12-07T10:29:55;22.40;95.50
8002;DHT22;4046;48.774;8.732;2022-12-07T10:32:33;22.40;95.50
8002;DHT22;4046;48.774;8.732;2022-12-07T10:35:35;22.40;95.50
8002;DHT22;4046;48.774;8.732;2022-12-07T10:38:16;22.40;95.40
8002;DHT22;4046;48.774;8.732;2022-12-07T10:40:42;22.40;95.40
8002;DHT22;4046;48.774;8.732;2022-12-07T11:10:29;22.40;95.30
8002;DHT22;4046;48.774;8.732;2022-12-07T11:19:29;22.40;95.40
8002;DHT22;4046;48.774;8.732;2022-12-07T11:22:03;22.40;95.40
8002;DHT22;4046;48.774;8.732;2022-12-07T11:24:48;22.40;95.40
8002;DHT22;4046;48.774;8.732;2022-12-07T11:35:43;22.30;95.40
8002;DHT22;4046;48.774;8.732;2022-12-07T11:38:24;22.30;95.40
8002;DHT22;4046;48.774;8.732;2022-12-07T11:40:58;22.30;95.80
8002;DHT22;4046;48.774;8.732;2022-12-07T11:43:54;22.30;95.40
8002;DHT22;4046;48.774;8.732;2022-12-07T11:46:25;22.30;95.40
8002;DHT22;4046;48.774;8.732;2022-12-07T11:48:58;22.30;95.40
8002;DHT22;4046;48.774;8.732;2022-12-07T11:51:28;22.30;95.40
8002;DHT22;4046;48.774;8.732;2022-12-07T11:54:15;22.30;95.40
8002;DHT22;4046;48.774;8.732;2022-12-07T11:56:44;22.30;95.40
8002;DHT22;4046;48.774;8.732;2022-12-07T11:59:17;22.30;95.40
8002;DHT22;4046;48.774;8.732;2022-12-07T12:02:03;22.30;95.40
8002;DHT22;4046;48.774;8.732;2022-12-07T12:07:22;22.20;95.40
8002;DHT22;4046;48.774;8.732;2022-12-07T12:10:05;22.20;95.40
8002;DHT22;4046;48.774;8.732;2022-12-07T12:18:21;22.20;95.40
8002;DHT22;4046;48.774;8.732;2022-12-07T12:23:50;22.20;95.40
8002;DHT22;4046;48.774;8.732;2022-12-07T12:26:22;22.20;95.40
8002;DHT22;4046;48.774;8.732;2022-12-07T12:28:58;22.20;95.40
8002;DHT22;4046;48.774;8.732;2022-12-07T12:33:59;22.20;95.40
8002;DHT22;4046;48.774;8.732;2022-12-07T12:36:44;22.20;95.40
8002;DHT22;4046;48.774;8.732;2022-12-07T12:39:16;22.20;95.40
8002;DHT22;4046;48.774;8.732;2022-12-07T12:51:59;22.20;95.40
8002;DHT22;4046;48.774;8.732;2022-12-07T12:54:29;22.20;95.30
8002;DHT22;4046;48.774;8.732;2022-12-07T12:57:16;22.20;95.40
8002;DHT22;4046;48.774;8.732;2022-12-07T13:02:26;22.20;95.30
8002;DHT22;4046;48.774;8.732;2022-12-07T13:20:55;22.40;95.20
8002;DHT22;4046;48.774;8.732;2022-12-07T13:26:21;22.40;95.20
8002;DHT22;4046;48.774;8.732;2022-12-07T13:28:51;22.40;95.20
8002;DHT22;4046;48.774;8.732;2022-12-07T13:34:01;22.40;95.20
8002;DHT22;4046;48.774;8.732;2022-12-07T13:36:36;22.40;95.20
8002;DHT22;4046;48.774;8.732;2022-12-07T13:39:19;22.40;95.20
8002;DHT22;4046;48.774;8.732;2022-12-07T13:41:51;22.40;95.20
8002;DHT22;4046;48.774;8.732;2022-12-07T13:44:18;22.40;95.20
8002;DHT22;4046;48.774;8.732;2022-12-07T13:49:31;22.30;95.20
8002;DHT22;4046;48.774;8.732;2022-12-07T13:52:16;22.30;95.20
8002;DHT22;4046;48.774;8.732;2022-12-07T13:54:55;22.30;95.20
8002;DHT22;4046;48.774;8.732;2022-12-07T13:57:23;22.30;95.20
8002;DHT22;4046;48.774;8.732;2022-12-07T13:59:51;22.30;95.20
8002;DHT22;4046;48.774;8.732;2022-12-07T14:02:22;22.30;95.20
8002;DHT22;4046;48.774;8.732;2022-12-07T14:04:50;22.30;95.20
8002;DHT22;4046;48.774;8.732;2022-12-07T14:07:28;22.30;95.20
8002;DHT22;4046;48.774;8.732;2022-12-07T14:09:56;22.30;95.20
8002;DHT22;4046;48.774;8.732;2022-12-07T14:12:24;22.30;95.20
8002;DHT22;4046;48.774;8.732;2022-12-07T14:14:51;22.30;95.20
8002;DHT22;4046;48.774;8.732;2022-12-07T14:17:20;22.30;95.20
8002;DHT22;4046;48.774;8.732;2022-12-07T14:19:52;22.30;95.20
8002;DHT22;4046;48.774;8.732;2022-12-07T14:22:37;22.20;95.20
8002;DHT22;4046;48.774;8.732;2022-12-07T14:27:46;22.20;95.20
8002;DHT22;4046;48.774;8.732;2022-12-07T14:30:17;22.20;95.20
8002;DHT22;4046;48.774;8.732;2022-12-07T14:32:44;22.20;95.20
8002;DHT22;4046;48.774;8.732;2022-12-07T14:35:16;22.20;95.20
8002;DHT22;4046;48.774;8.732;2022-12-07T14:37:45;22.20;95.20
8002;DHT22;4046;48.774;8.732;2022-12-07T14:40:14;22.10;95.20
8002;DHT22;4046;48.774;8.732;2022-12-07T14:42:42;22.10;95.20
8002;DHT22;4046;48.774;8.732;2022-12-07T14:45:18;22.10;95.20
8002;DHT22;4046;48.774;8.732;2022-12-07T14:47:45;22.10;95.20
8002;DHT22;4046;48.774;8.732;2022-12-07T14:50:13;22.10;95.20
8002;DHT22;4046;48.774;8.732;2022-12-07T14:52:41;22.10;95.20
8002;DHT22;4046;48.774;8.732;2022-12-07T14:55:29;22.10;95.30
8002;DHT22;4046;48.774;8.732;2022-12-07T14:57:56;22.10;95.30
8002;DHT22;4046;48.774;8.732;2022-12-07T15:00:24;22.10;95.30
8002;DHT22;4046;48.774;8.732;2022-12-07T15:02:51;22.00;95.60
8002;DHT22;4046;48.774;8.732;2022-12-07T15:05:18;22.00;95.30
8002;DHT22;4046;48.774;8.732;2022-12-07T15:07:45;22.00;95.30
8002;DHT22;4046;48.774;8.732;2022-12-07T15:10:27;22.00;95.30
8002;DHT22;4046;48.774;8.732;2022-12-07T15:12:56;22.00;95.60
8002;DHT22;4046;48.774;8.732;2022-12-07T15:15:46;22.00;95.30
8002;DHT22;4046;48.774;8.732;2022-12-07T15:18:13;22.00;95.30
8002;DHT22;4046;48.774;8.732;2022-12-07T15:20:39;22.00;95.30
8002;DHT22;4046;48.774;8.732;2022-12-07T15:23:05;22.00;95.30
8002;DHT22;4046;48.774;8.732;2022-12-07T15:25:32;22.00;95.30
8002;DHT22;4046;48.774;8.732;2022-12-07T15:27:58;22.00;95.30
8002;DHT22;4046;48.774;8.732;2022-12-07T15:30:25;22.00;95.30
8002;DHT22;4046;48.774;8.732;2022-12-07T15:32:52;22.00;95.30
8002;DHT22;4046;48.774;8.732;2022-12-07T15:35:19;22.00;95.30
8002;DHT22;4046;48.774;8.732;2022-12-07T15:37:46;22.00;95.30
8002;DHT22;4046;48.774;8.732;2022-12-07T15:40:13;22.00;95.30
8002;DHT22;4046;48.774;8.732;2022-12-07T15:42:40;22.00;95.30
8002;DHT22;4046;48.774;8.732;2022-12-07T15:45:08;21.90;95.30
8002;DHT22;4046;48.774;8.732;2022-12-07T15:47:37;22.00;95.30
8002;DHT22;4046;48.774;8.732;2022-12-07T15:50:05;22.00;95.30
8002;DHT22;4046;48.774;8.732;2022-12-07T15:52:32;21.90;95.30
8002;DHT22;4046;48.774;8.732;2022-12-07T15:54:58;21.90;95.30
8002;DHT22;4046;48.774;8.732;2022-12-07T15:57:26;22.00;95.30
8002;DHT22;4046;48.774;8.732;2022-12-07T15:59:52;21.90;95.30
8002;DHT22;4046;48.774;8.732;2022-12-07T16:02:19;21.90;95.30
8002;DHT22;4046;48.774;8.732;2022-12-07T16:04:46;21.90;95.00
8002;DHT22;4046;48.774;8.732;2022-12-07T16:07:12;21.80;94.80
8002;DHT22;4046;48.774;8.732;2022-12-07T16:09:42;21.70;94.60
8002;DHT22;4046;48.774;8.732;2022-12-07T16:12:09;21.70;94.60
8002;DHT22;4046;48.774;8.732;2022-12-07T16:14:36;21.70;94.70
8002;DHT22;4046;48.774;8.732;2022-12-07T16:17:03;21.70;94.80
8002;DHT22;4046;48.774;8.732;2022-12-07T16:19:31;21.80;94.80
8002;DHT22;4046;48.774;8.732;2022-12-07T16:21:57;21.80;94.90
8002;DHT22;4046;48.774;8.732;2022-12-07T16:24:23;21.80;94.90
8002;DHT22;4046;48.774;8.732;2022-12-07T16:26:49;21.80;94.90
8002;DHT22;4046;48.774;8.732;2022-12-07T16:29:17;21.80;94.90
8002;DHT22;4046;48.774;8.732;2022-12-07T16:31:44;21.90;95.00
8002;DHT22;4046;48.774;8.732;2022-12-07T16:34:10;21.90;95.00
8002;DHT22;4046;48.774;8.732;2022-12-07T16:36:36;21.90;95.00
8002;DHT22;4046;48.774;8.732;2022-12-07T16:39:04;21.90;95.00
8002;DHT22;4046;48.774;8.732;2022-12-07T16:41:30;21.90;95.00
8002;DHT22;4046;48.774;8.732;2022-12-07T16:43:57;22.00;95.10
8002;DHT22;4046;48.774;8.732;2022-12-07T16:46:27;22.00;95.20
8002;DHT22;4046;48.774;8.732;2022-12-07T16:48:53;22.10;95.20
8002;DHT22;4046;48.774;8.732;2022-12-07T16:51:19;22.20;95.20
8002;DHT22;4046;48.774;8.732;2022-12-07T16:53:46;22.20;95.20
8002;DHT22;4046;48.774;8.732;2022-12-07T16:56:13;22.20;95.20
8002;DHT22;4046;48.774;8.732;2022-12-07T16:58:43;22.30;95.20
8002;DHT22;4046;48.774;8.732;2022-12-07T17:01:21;22.40;95.30
8002;DHT22;4046;48.774;8.732;2022-12-07T17:03:48;22.40;95.20
8002;DHT22;4046;48.774;8.732;2022-12-07T17:06:17;22.40;95.20
8002;DHT22;4046;48.774;8.732;2022-12-07T17:08:44;22.40;95.20
8002;DHT22;4046;48.774;8.732;2022-12-07T17:11:16;22.50;95.30
8002;DHT22;4046;48.774;8.732;2022-12-07T17:13:42;22.50;95.20
8002;DHT22;4046;48.774;8.732;2022-12-07T17:16:28;22.60;95.30
8002;DHT22;4046;48.774;8.732;2022-12-07T17:18:54;22.60;95.30
8002;DHT22;4046;48.774;8.732;2022-12-07T17:21:21;22.60;95.20
8002;DHT22;4046;48.774;8.732;2022-12-07T17:23:47;22.60;95.20
8002;DHT22;4046;48.774;8.732;2022-12-07T17:26:21;22.70;95.30
8002;DHT22;4046;48.774;8.732;2022-12-07T17:28:47;22.70;95.30
8002;DHT22;4046;48.774;8.732;2022-12-07T17:31:16;22.70;95.20
8002;DHT22;4046;48.774;8.732;2022-12-07T17:33:42;22.70;95.20
8002;DHT22;4046;48.774;8.732;2022-12-07T17:36:10;22.70;95.20
8002;DHT22;4046;48.774;8.732;2022-12-07T17:38:37;22.70;95.20
8002;DHT22;4046;48.774;8.732;2022-12-07T17:43:36;22.70;95.20
8002;DHT22;4046;48.774;8.732;2022-12-07T17:46:07;22.70;95.20
8002;DHT22;4046;48.774;8.732;2022-12-07T17:48:34;22.70;95.20
8002;DHT22;4046;48.774;8.732;2022-12-07T17:51:01;22.70;95.20
8002;DHT22;4046;48.774;8.732;2022-12-07T17:53:50;22.70;95.20
8002;DHT22;4046;48.774;8.732;2022-12-07T17:56:17;22.70;95.20
8002;DHT22;4046;48.774;8.732;2022-12-07T17:58:43;22.70;95.20
8002;DHT22;4046;48.774;8.732;2022-12-07T18:01:10;22.60;94.90
8002;DHT22;4046;48.774;8.732;2022-12-07T18:03:36;22.60;94.90
8002;DHT22;4046;48.774;8.732;2022-12-07T18:06:03;22.50;94.70
8002;DHT22;4046;48.774;8.732;2022-12-07T18:08:29;22.50;94.70
8002;DHT22;4046;48.774;8.732;2022-12-07T18:10:59;22.40;94.90
8002;DHT22;4046;48.774;8.732;2022-12-07T18:13:25;22.40;94.90
8002;DHT22;4046;48.774;8.732;2022-12-07T18:16:15;22.40;94.90
8002;DHT22;4046;48.774;8.732;2022-12-07T18:18:45;22.40;94.90
8002;DHT22;4046;48.774;8.732;2022-12-07T18:21:14;22.50;94.90
8002;DHT22;4046;48.774;8.732;2022-12-07T18:23:43;22.50;94.90